createdAt,value
2022-11-13T00:04:20.712Z,0
2022-11-13T00:09:22.496Z,0
2022-11-13T00:14:24.617Z,0
2022-11-13T00:19:26.409Z,0
2022-11-13T00:24:28.402Z,0
2022-11-13T00:29:30.473Z,0
2022-11-13T00:34:47.258Z,0
2022-11-13T00:39:50.056Z,0
2022-11-13T00:44:52.338Z,0
2022-11-13T00:49:53.983Z,0
2022-11-13T00:54:55.827Z,0
2022-11-13T00:59:57.830Z,0
2022-11-13T01:04:59.699Z,0
2022-11-13T01:10:01.825Z,0
2022-11-13T01:15:03.884Z,0
2022-11-13T01:20:05.676Z,0
2022-11-13T01:25:12.176Z,0
2022-11-13T01:30:13.730Z,0
2022-11-13T01:35:15.284Z,0
2022-11-13T01:40:16.824Z,0
2022-11-13T01:45:19.239Z,0
2022-11-13T01:50:20.719Z,0
2022-11-13T01:55:22.234Z,0
2022-11-13T02:00:23.987Z,0
2022-11-13T02:05:25.524Z,0
2022-11-13T02:10:27.332Z,0
2022-11-13T02:15:29.475Z,0
2022-11-13T02:20:31.477Z,0
2022-11-13T02:25:33.474Z,0
2022-11-13T02:30:35.648Z,0
2022-11-13T02:35:37.586Z,0
2022-11-13T02:40:39.487Z,0
2022-11-13T02:45:42.411Z,0
2022-11-13T02:50:44.204Z,0.88715
2022-11-13T02:55:46.121Z,1.16185
2022-11-13T03:00:47.931Z,2.50815
2022-11-13T03:05:49.660Z,2.6926
2022-11-13T03:10:51.389Z,6.9711
2022-11-13T03:15:53.835Z,13.9422
2022-11-13T03:20:55.852Z,15.60225
2022-11-13T03:25:57.952Z,14.2008
2022-11-13T03:30:59.855Z,14.8093
2022-11-13T03:36:01.646Z,18.53445
2022-11-13T03:41:03.522Z,9.6637
2022-11-13T03:46:05.277Z,27.46035
2022-11-13T03:51:07.062Z,41.587
2022-11-13T03:56:08.597Z,47.15665
2022-11-13T04:01:10.134Z,44.04
2022-11-13T04:06:11.594Z,21.59595
2022-11-13T04:11:13.194Z,18.90335
2022-11-13T04:16:15.004Z,46.67745
2022-11-13T04:21:16.635Z,51.5093
2022-11-13T04:26:18.229Z,79.09895
2022-11-13T04:31:19.996Z,115.44905
2022-11-13T04:36:21.544Z,8.87075
2022-11-13T04:41:23.163Z,11.19445
2022-11-13T04:46:25.045Z,19.88075
2022-11-13T04:51:26.575Z,14.3111
2022-11-13T04:56:28.341Z,20.9133
2022-11-13T05:01:30.203Z,18.35
2022-11-13T05:06:32.188Z,44.2986
2022-11-13T05:11:34.341Z,79.61615
2022-11-13T05:16:36.536Z,121.186
2022-11-13T05:21:38.446Z,141.4185
2022-11-13T05:26:40.484Z,150.85975
2022-11-13T05:31:42.487Z,214.91165
2022-11-13T05:36:44.267Z,306.88595
2022-11-13T05:41:45.753Z,287.99975
2022-11-13T05:46:47.787Z,142.28375
2022-11-13T05:51:49.664Z,133.2837
2022-11-13T05:56:51.210Z,110.58105
2022-11-13T06:01:52.878Z,87.69395
2022-11-13T06:06:54.549Z,129.9826
2022-11-13T06:11:56.062Z,159.0117
2022-11-13T06:16:57.857Z,194.45855
2022-11-13T06:21:59.842Z,244.91815
2022-11-13T06:27:01.608Z,201.8347
2022-11-13T06:32:03.655Z,229.0383
2022-11-13T06:37:05.421Z,351.8292
2022-11-13T06:42:07.217Z,267.3432
2022-11-13T06:47:09.321Z,370.0689
2022-11-13T06:52:10.796Z,527.84645
2022-11-13T06:57:12.272Z,360.05345
2022-11-13T07:02:14.053Z,346.46115
2022-11-13T07:07:16.362Z,292.12995
2022-11-13T07:12:18.002Z,278.03945
2022-11-13T07:17:19.907Z,228.1522
2022-11-13T07:22:21.720Z,251.85125
2022-11-13T07:27:23.439Z,321.952
2022-11-13T07:32:25.224Z,420.43535
2022-11-13T07:37:27.006Z,375.10235
2022-11-13T07:42:28.802Z,398.13775
2022-11-13T07:47:30.874Z,253.15955
2022-11-13T07:52:32.859Z,337.7007
2022-11-13T07:57:34.752Z,468.90215
2022-11-13T08:02:36.702Z,673.00725
2022-11-13T08:07:38.526Z,860.3501
2022-11-13T08:12:40.343Z,856.4215
2022-11-13T08:17:42.179Z,578.3232
2022-11-13T08:22:44.055Z,547.6169
2022-11-13T08:27:45.875Z,621.5721
2022-11-13T08:32:47.987Z,640.12555
2022-11-13T08:37:49.452Z,685.2171
2022-11-13T08:42:51.515Z,790.70955
2022-11-13T08:47:53.395Z,777.22755
2022-11-13T08:52:55.217Z,850.5381
2022-11-13T08:57:56.990Z,926.37395
2022-11-13T09:02:58.929Z,1426.75955
2022-11-13T09:08:00.903Z,1163.40245
2022-11-13T09:13:02.370Z,1013.8853
2022-11-13T09:18:04.358Z,1259.60195
2022-11-13T09:23:06.282Z,1182.1232
2022-11-13T09:28:08.283Z,1229.8522
2022-11-13T09:33:10.357Z,1494.41335
2022-11-13T09:38:11.948Z,1339.6973
2022-11-13T09:43:13.461Z,1026.3176
2022-11-13T09:48:15.693Z,1191.0681
2022-11-13T09:53:17.558Z,1055.08625
2022-11-13T09:58:19.120Z,937.60455
2022-11-13T10:03:46.179Z,846.73695
2022-11-13T10:09:01.917Z,1078.56285
2022-11-13T10:14:03.775Z,1089.4454
2022-11-13T10:19:05.970Z,885.06455
2022-11-13T10:24:10.486Z,756.3504
2022-11-13T10:29:15.802Z,787.7412
2022-11-13T10:34:17.760Z,609.87945
2022-11-13T10:39:19.749Z,521.0218
2022-11-13T10:44:23.925Z,668.08595
2022-11-13T10:49:25.755Z,656.3553
2022-11-13T10:54:27.489Z,827.9096
2022-11-13T10:59:29.297Z,948.0116
2022-11-13T11:04:31.197Z,877.3385
2022-11-13T11:09:33.033Z,649.91855
2022-11-13T11:14:34.721Z,775.1263
2022-11-13T11:19:36.611Z,963.35525
2022-11-13T11:24:38.393Z,907.1397
2022-11-13T11:29:40.538Z,1067.88745
2022-11-13T11:34:42.385Z,1402.3153
2022-11-13T11:39:44.306Z,1445.03355
2022-11-13T11:44:46.538Z,1565.1791
2022-11-13T11:49:48.676Z,859.8329
2022-11-13T11:54:50.802Z,910.58725
2022-11-13T11:59:52.697Z,1282.065
2022-11-13T12:04:55.057Z,1708.9746
2022-11-13T12:09:57.006Z,1499.58165
2022-11-13T12:14:58.912Z,1315.24515
2022-11-13T12:20:01.107Z,1027.7399
2022-11-13T12:25:02.881Z,844.2478
2022-11-13T12:30:04.710Z,750.78075
2022-11-13T12:35:06.737Z,630.59115
2022-11-13T12:40:08.892Z,853.17555
2022-11-13T12:45:10.816Z,1272.21685
2022-11-13T12:50:12.783Z,993.5462
2022-11-13T12:55:14.219Z,919.3857
2022-11-13T13:00:15.881Z,1570.3173
2022-11-13T13:05:17.792Z,1386.9624
2022-11-13T13:10:19.339Z,1897.673
2022-11-13T13:15:20.925Z,2118.253
2022-11-13T13:20:22.948Z,1995.78005
2022-11-13T13:25:24.814Z,2049.5885
2022-11-13T13:30:26.567Z,1736.4447
2022-11-13T13:35:28.426Z,1762.02995
2022-11-13T13:40:31.712Z,1951.7118
2022-11-13T13:45:33.209Z,1436.70925
2022-11-13T13:50:35.367Z,1775.9476
2022-11-13T13:55:37.032Z,1756.6888
2022-11-13T14:01:05.256Z,1775.43645
2022-11-13T14:06:18.864Z,1932.5448
2022-11-13T14:11:20.667Z,1832.41805
2022-11-13T14:16:22.531Z,447.26635
2022-11-13T14:21:25.092Z,186.7631
2022-11-13T14:26:26.659Z,193.0534
2022-11-13T14:31:28.365Z,208.82295
2022-11-13T14:36:30.208Z,206.832
2022-11-13T14:41:32.027Z,218.3782
2022-11-13T14:46:33.809Z,201.68825
2022-11-13T14:51:35.846Z,201.7624
2022-11-13T14:56:37.451Z,133.413
2022-11-13T15:01:39.461Z,79.6713
2022-11-13T15:06:41.509Z,73.1984
2022-11-13T15:11:43.520Z,110.39845
2022-11-13T15:16:45.321Z,154.0714
2022-11-13T15:22:20.316Z,420.36675
2022-11-13T15:27:28.396Z,778.74115
2022-11-13T15:32:29.914Z,855.699
2022-11-13T15:37:31.818Z,638.59295
2022-11-13T15:42:34.779Z,554.01565
2022-11-13T15:47:36.900Z,248.82405
2022-11-13T15:52:38.588Z,209.70905
2022-11-13T15:57:40.621Z,188.15295
2022-11-13T16:02:42.594Z,137.62105
2022-11-13T16:07:45.860Z,110.6019
2022-11-13T16:12:47.759Z,87.99055
2022-11-13T16:17:49.658Z,69.0492
2022-11-13T16:22:51.807Z,52.9849
2022-11-13T16:27:53.846Z,38.5445
2022-11-13T16:32:56.315Z,21.35635
2022-11-13T16:37:58.382Z,9.00005
2022-11-13T16:43:00.150Z,4.0295
2022-11-13T16:48:01.940Z,2.13325
2022-11-13T16:53:06.884Z,1.53075
2022-11-13T16:58:10.042Z,1.16185
2022-11-13T17:03:11.844Z,0.88715
2022-11-13T17:08:13.481Z,0.88715
2022-11-13T17:13:15.013Z,0
2022-11-13T17:18:16.735Z,0
2022-11-13T17:23:18.619Z,0
2022-11-13T17:28:20.148Z,0
2022-11-13T17:33:23.163Z,0
2022-11-13T17:38:24.963Z,0
2022-11-13T17:43:27.415Z,0
2022-11-13T17:48:29.813Z,0
2022-11-13T17:53:32.109Z,0
2022-11-13T17:58:33.795Z,0
2022-11-13T18:03:35.756Z,0
2022-11-13T18:08:37.484Z,0
2022-11-13T18:13:39.306Z,0
2022-11-13T18:18:41.386Z,0
2022-11-13T18:23:43.378Z,0
2022-11-13T18:28:45.044Z,0
2022-11-13T18:33:46.775Z,0
2022-11-13T18:38:48.888Z,0
2022-11-13T18:43:50.543Z,0
2022-11-13T18:48:52.368Z,0
2022-11-13T18:53:54.108Z,0
2022-11-13T18:58:56.221Z,0
2022-11-13T19:04:21.877Z,0
2022-11-13T19:09:26.470Z,0
2022-11-13T19:14:28.109Z,0
2022-11-13T19:19:29.695Z,0
2022-11-13T19:24:31.671Z,0
2022-11-13T19:29:33.420Z,0
2022-11-13T19:34:35.066Z,0
2022-11-13T19:39:37.614Z,0
2022-11-13T19:44:39.795Z,0
2022-11-13T19:49:41.692Z,0
2022-11-13T19:54:43.646Z,0
2022-11-13T19:59:45.864Z,0
2022-11-13T20:04:47.643Z,0
2022-11-13T20:09:51.344Z,0
2022-11-13T20:14:53.170Z,0
2022-11-13T20:19:55.160Z,0
2022-11-13T20:24:58.500Z,0
2022-11-13T20:30:00.432Z,0
2022-11-13T20:35:02.303Z,0
2022-11-13T20:40:04.092Z,0
2022-11-13T20:45:11.195Z,0
2022-11-13T20:50:13.138Z,0
2022-11-13T20:55:15.234Z,0
2022-11-13T21:00:16.724Z,0
2022-11-13T21:05:18.156Z,0
2022-11-13T21:10:19.808Z,0
2022-11-13T21:15:21.734Z,0
2022-11-13T21:20:23.294Z,0
2022-11-13T21:25:25.527Z,0
2022-11-13T21:30:27.519Z,0
2022-11-13T21:35:30.126Z,0
2022-11-13T21:40:32.050Z,0
2022-11-13T21:45:33.766Z,0
2022-11-13T21:50:36.304Z,0
2022-11-13T21:55:38.361Z,0
2022-11-13T22:00:40.287Z,0
2022-11-13T22:05:42.437Z,0
2022-11-13T22:10:44.200Z,0
2022-11-13T22:15:46.195Z,0
2022-11-13T22:20:48.070Z,0
2022-11-13T22:25:54.542Z,0
2022-11-13T22:30:58.953Z,0
2022-11-13T22:36:00.800Z,0
2022-11-13T22:41:02.737Z,0
2022-11-13T22:46:04.584Z,0
2022-11-13T22:51:06.665Z,0
2022-11-13T22:56:09.687Z,0
2022-11-13T23:01:12.090Z,0
2022-11-13T23:06:14.061Z,0
2022-11-13T23:11:15.813Z,0
2022-11-13T23:16:17.349Z,0
2022-11-13T23:21:19.016Z,0
2022-11-13T23:26:20.880Z,0
2022-11-13T23:31:22.383Z,0
2022-11-13T23:36:24.063Z,0
2022-11-13T23:41:25.779Z,0.88715
2022-11-13T23:46:27.248Z,0
2022-11-13T23:51:28.743Z,0
2022-11-13T23:56:30.773Z,0
